sensor_id;sensor_type;location;lat;lon;timestamp;temperature;humidity
49238;DHT22;35069;47.906;1.892;2023-02-12T00:02:23;5.20;99.90
49238;DHT22;35069;47.906;1.892;2023-02-12T00:04:49;5.20;99.90
49238;DHT22;35069;47.906;1.892;2023-02-12T00:07:15;5.30;99.90
49238;DHT22;35069;47.906;1.892;2023-02-12T00:09:40;5.30;99.90
49238;DHT22;35069;47.906;1.892;2023-02-12T00:12:06;5.30;99.90
49238;DHT22;35069;47.906;1.892;2023-02-12T00:14:32;5.30;99.90
49238;DHT22;35069;47.906;1.892;2023-02-12T00:16:59;5.30;99.90
49238;DHT22;35069;47.906;1.892;2023-02-12T00:19:24;5.30;99.90
49238;DHT22;35069;47.906;1.892;2023-02-12T00:21:50;5.40;99.90
49238;DHT22;35069;47.906;1.892;2023-02-12T00:24:16;5.30;99.90
49238;DHT22;35069;47.906;1.892;2023-02-12T00:26:41;5.40;99.90
49238;DHT22;35069;47.906;1.892;2023-02-12T00:29:08;5.40;99.90
49238;DHT22;35069;47.906;1.892;2023-02-12T00:31:34;5.40;99.90
49238;DHT22;35069;47.906;1.892;2023-02-12T00:33:59;5.40;99.90
49238;DHT22;35069;47.906;1.892;2023-02-12T00:36:28;5.40;99.90
49238;DHT22;35069;47.906;1.892;2023-02-12T00:38:55;5.40;99.90
49238;DHT22;35069;47.906;1.892;2023-02-12T00:41:22;5.50;99.90
49238;DHT22;35069;47.906;1.892;2023-02-12T00:43:48;5.50;99.90
49238;DHT22;35069;47.906;1.892;2023-02-12T00:46:15;5.60;99.90
49238;DHT22;35069;47.906;1.892;2023-02-12T00:48:40;5.60;99.90
49238;DHT22;35069;47.906;1.892;2023-02-12T00:51:06;5.60;99.90
49238;DHT22;35069;47.906;1.892;2023-02-12T00:53:32;5.50;99.90
49238;DHT22;35069;47.906;1.892;2023-02-12T00:55:58;5.60;99.90
49238;DHT22;35069;47.906;1.892;2023-02-12T00:58:24;5.50;99.90
49238;DHT22;35069;47.906;1.892;2023-02-12T01:00:50;5.50;99.90
49238;DHT22;35069;47.906;1.892;2023-02-12T01:03:16;5.50;99.90
49238;DHT22;35069;47.906;1.892;2023-02-12T01:05:42;5.60;99.90
49238;DHT22;35069;47.906;1.892;2023-02-12T01:08:13;5.60;99.90
49238;DHT22;35069;47.906;1.892;2023-02-12T01:10:39;5.60;99.90
49238;DHT22;35069;47.906;1.892;2023-02-12T01:13:05;5.60;99.90
49238;DHT22;35069;47.906;1.892;2023-02-12T01:15:30;5.70;99.90
49238;DHT22;35069;47.906;1.892;2023-02-12T01:17:56;5.80;99.90
49238;DHT22;35069;47.906;1.892;2023-02-12T01:20:23;5.70;99.90
49238;DHT22;35069;47.906;1.892;2023-02-12T01:22:49;5.70;99.90
49238;DHT22;35069;47.906;1.892;2023-02-12T01:25:15;5.70;99.90
49238;DHT22;35069;47.906;1.892;2023-02-12T01:27:41;5.70;99.90
49238;DHT22;35069;47.906;1.892;2023-02-12T01:30:11;5.70;99.90
49238;DHT22;35069;47.906;1.892;2023-02-12T01:32:37;5.70;99.90
49238;DHT22;35069;47.906;1.892;2023-02-12T01:35:04;5.70;99.90
49238;DHT22;35069;47.906;1.892;2023-02-12T01:37:30;5.80;99.90
49238;DHT22;35069;47.906;1.892;2023-02-12T01:39:55;5.90;99.90
49238;DHT22;35069;47.906;1.892;2023-02-12T01:42:21;5.90;99.90
49238;DHT22;35069;47.906;1.892;2023-02-12T01:47:38;5.90;99.90
49238;DHT22;35069;47.906;1.892;2023-02-12T01:50:09;5.80;99.90
49238;DHT22;35069;47.906;1.892;2023-02-12T01:52:37;5.80;99.90
49238;DHT22;35069;47.906;1.892;2023-02-12T01:55:06;5.80;99.90
49238;DHT22;35069;47.906;1.892;2023-02-12T01:57:36;5.80;99.90
49238;DHT22;35069;47.906;1.892;2023-02-12T02:00:05;5.80;99.90
49238;DHT22;35069;47.906;1.892;2023-02-12T02:02:33;5.80;99.90
49238;DHT22;35069;47.906;1.892;2023-02-12T02:05:01;5.70;99.90
49238;DHT22;35069;47.906;1.892;2023-02-12T02:07:27;5.70;99.90
49238;DHT22;35069;47.906;1.892;2023-02-12T02:09:54;5.80;99.90
49238;DHT22;35069;47.906;1.892;2023-02-12T02:12:21;5.80;99.90
49238;DHT22;35069;47.906;1.892;2023-02-12T02:15:05;5.80;99.90
49238;DHT22;35069;47.906;1.892;2023-02-12T02:26:27;5.70;99.90
49238;DHT22;35069;47.906;1.892;2023-02-12T02:29:20;5.80;99.90
49238;DHT22;35069;47.906;1.892;2023-02-12T02:31:56;5.80;99.90
49238;DHT22;35069;47.906;1.892;2023-02-12T02:34:37;5.80;99.90
49238;DHT22;35069;47.906;1.892;2023-02-12T02:37:23;5.90;99.90
49238;DHT22;35069;47.906;1.892;2023-02-12T02:39:58;5.90;99.90
49238;DHT22;35069;47.906;1.892;2023-02-12T02:42:32;5.90;99.90
49238;DHT22;35069;47.906;1.892;2023-02-12T02:47:40;5.90;99.90
49238;DHT22;35069;47.906;1.892;2023-02-12T02:50:10;5.90;99.90
49238;DHT22;35069;47.906;1.892;2023-02-12T02:52:50;5.90;99.90
49238;DHT22;35069;47.906;1.892;2023-02-12T02:55:19;5.90;99.90
49238;DHT22;35069;47.906;1.892;2023-02-12T02:57:58;5.90;99.90
49238;DHT22;35069;47.906;1.892;2023-02-12T03:00:36;5.90;99.90
49238;DHT22;35069;47.906;1.892;2023-02-12T03:03:35;5.90;99.90
49238;DHT22;35069;47.906;1.892;2023-02-12T03:06:26;5.90;99.90
49238;DHT22;35069;47.906;1.892;2023-02-12T03:08:55;5.80;99.90
49238;DHT22;35069;47.906;1.892;2023-02-12T03:11:25;5.90;99.90
49238;DHT22;35069;47.906;1.892;2023-02-12T03:16:25;5.90;99.90
49238;DHT22;35069;47.906;1.892;2023-02-12T03:19:00;5.90;99.90
49238;DHT22;35069;47.906;1.892;2023-02-12T03:21:39;5.90;99.90
49238;DHT22;35069;47.906;1.892;2023-02-12T03:26:54;5.90;99.90
49238;DHT22;35069;47.906;1.892;2023-02-12T03:29:21;5.90;99.90
49238;DHT22;35069;47.906;1.892;2023-02-12T03:34:47;6.00;99.90
49238;DHT22;35069;47.906;1.892;2023-02-12T03:37:35;6.00;99.90
49238;DHT22;35069;47.906;1.892;2023-02-12T03:40:10;5.90;99.90
49238;DHT22;35069;47.906;1.892;2023-02-12T03:42:57;5.90;99.90
49238;DHT22;35069;47.906;1.892;2023-02-12T03:51:37;5.90;99.90
49238;DHT22;35069;47.906;1.892;2023-02-12T03:54:05;5.80;99.90
49238;DHT22;35069;47.906;1.892;2023-02-12T03:56:53;5.80;99.90
49238;DHT22;35069;47.906;1.892;2023-02-12T03:59:21;5.80;99.90
49238;DHT22;35069;47.906;1.892;2023-02-12T04:01:49;5.80;99.90
49238;DHT22;35069;47.906;1.892;2023-02-12T04:04:16;5.80;99.90
49238;DHT22;35069;47.906;1.892;2023-02-12T04:06:42;5.80;99.90
49238;DHT22;35069;47.906;1.892;2023-02-12T04:09:10;5.80;99.90
49238;DHT22;35069;47.906;1.892;2023-02-12T04:11:50;5.80;99.90
49238;DHT22;35069;47.906;1.892;2023-02-12T04:14:24;5.80;99.90
49238;DHT22;35069;47.906;1.892;2023-02-12T04:19:34;5.80;99.90
49238;DHT22;35069;47.906;1.892;2023-02-12T04:22:13;5.80;99.90
49238;DHT22;35069;47.906;1.892;2023-02-12T04:33:15;5.80;99.90
49238;DHT22;35069;47.906;1.892;2023-02-12T04:36:00;5.80;99.90
49238;DHT22;35069;47.906;1.892;2023-02-12T04:38:43;5.80;99.90
49238;DHT22;35069;47.906;1.892;2023-02-12T04:41:11;5.70;99.90
49238;DHT22;35069;47.906;1.892;2023-02-12T04:43:37;5.70;99.90
49238;DHT22;35069;47.906;1.892;2023-02-12T04:46:04;5.70;99.90
49238;DHT22;35069;47.906;1.892;2023-02-12T04:48:30;5.70;99.90
49238;DHT22;35069;47.906;1.892;2023-02-12T04:50:56;5.60;99.90
49238;DHT22;35069;47.906;1.892;2023-02-12T04:53:22;5.70;99.90
49238;DHT22;35069;47.906;1.892;2023-02-12T04:55:47;5.70;99.90
49238;DHT22;35069;47.906;1.892;2023-02-12T04:58:15;5.70;99.90
49238;DHT22;35069;47.906;1.892;2023-02-12T05:00:41;5.70;99.90
49238;DHT22;35069;47.906;1.892;2023-02-12T05:03:06;5.70;99.90
49238;DHT22;35069;47.906;1.892;2023-02-12T05:05:32;5.70;99.90
49238;DHT22;35069;47.906;1.892;2023-02-12T05:07:58;5.70;99.90
49238;DHT22;35069;47.906;1.892;2023-02-12T05:10:23;5.70;99.90
49238;DHT22;35069;47.906;1.892;2023-02-12T05:12:53;5.70;99.90
49238;DHT22;35069;47.906;1.892;2023-02-12T05:15:19;5.70;99.90
49238;DHT22;35069;47.906;1.892;2023-02-12T05:17:44;5.60;99.90
49238;DHT22;35069;47.906;1.892;2023-02-12T05:20:11;5.60;99.90
49238;DHT22;35069;47.906;1.892;2023-02-12T05:22:38;5.60;99.90
49238;DHT22;35069;47.906;1.892;2023-02-12T05:25:04;5.60;99.90
49238;DHT22;35069;47.906;1.892;2023-02-12T05:27:30;5.60;99.90
49238;DHT22;35069;47.906;1.892;2023-02-12T05:29:56;5.60;99.90
49238;DHT22;35069;47.906;1.892;2023-02-12T05:32:22;5.60;99.90
49238;DHT22;35069;47.906;1.892;2023-02-12T05:34:48;5.60;99.90
49238;DHT22;35069;47.906;1.892;2023-02-12T05:37:14;5.60;99.90
49238;DHT22;35069;47.906;1.892;2023-02-12T05:39:40;5.60;99.90
49238;DHT22;35069;47.906;1.892;2023-02-12T05:42:05;5.60;99.90
49238;DHT22;35069;47.906;1.892;2023-02-12T05:44:31;5.60;99.90
49238;DHT22;35069;47.906;1.892;2023-02-12T05:46:57;5.60;99.90
49238;DHT22;35069;47.906;1.892;2023-02-12T05:49:22;5.50;99.90
49238;DHT22;35069;47.906;1.892;2023-02-12T05:51:48;5.50;99.90
49238;DHT22;35069;47.906;1.892;2023-02-12T05:54:14;5.40;99.90
49238;DHT22;35069;47.906;1.892;2023-02-12T05:56:46;5.50;99.90
49238;DHT22;35069;47.906;1.892;2023-02-12T05:59:17;5.50;99.90
49238;DHT22;35069;47.906;1.892;2023-02-12T06:01:44;5.40;99.90
49238;DHT22;35069;47.906;1.892;2023-02-12T06:04:14;5.50;99.90
49238;DHT22;35069;47.906;1.892;2023-02-12T06:06:40;5.50;99.90
49238;DHT22;35069;47.906;1.892;2023-02-12T06:09:07;5.50;99.90
49238;DHT22;35069;47.906;1.892;2023-02-12T06:11:33;5.50;99.90
49238;DHT22;35069;47.906;1.892;2023-02-12T06:14:04;5.60;99.90
49238;DHT22;35069;47.906;1.892;2023-02-12T06:16:31;5.60;99.90
49238;DHT22;35069;47.906;1.892;2023-02-12T06:18:57;5.50;99.90
49238;DHT22;35069;47.906;1.892;2023-02-12T06:21:25;5.50;99.90
49238;DHT22;35069;47.906;1.892;2023-02-12T06:23:51;5.40;99.90
49238;DHT22;35069;47.906;1.892;2023-02-12T06:26:18;5.40;99.90
49238;DHT22;35069;47.906;1.892;2023-02-12T06:28:44;5.40;99.90
49238;DHT22;35069;47.906;1.892;2023-02-12T06:31:30;5.40;99.90
49238;DHT22;35069;47.906;1.892;2023-02-12T06:33:58;5.40;99.90
49238;DHT22;35069;47.906;1.892;2023-02-12T06:36:24;5.40;99.90
49238;DHT22;35069;47.906;1.892;2023-02-12T06:38:50;5.40;99.90
49238;DHT22;35069;47.906;1.892;2023-02-12T06:41:16;5.40;99.90
49238;DHT22;35069;47.906;1.892;2023-02-12T06:43:42;5.40;99.90
49238;DHT22;35069;47.906;1.892;2023-02-12T06:46:08;5.50;99.90
49238;DHT22;35069;47.906;1.892;2023-02-12T06:48:34;5.40;99.90
49238;DHT22;35069;47.906;1.892;2023-02-12T06:51:18;5.50;99.90
49238;DHT22;35069;47.906;1.892;2023-02-12T06:53:46;5.50;99.90
49238;DHT22;35069;47.906;1.892;2023-02-12T06:56:12;5.40;99.90
49238;DHT22;35069;47.906;1.892;2023-02-12T06:58:40;5.30;99.90
49238;DHT22;35069;47.906;1.892;2023-02-12T07:01:10;5.20;99.90
49238;DHT22;35069;47.906;1.892;2023-02-12T07:03:39;5.30;99.90
49238;DHT22;35069;47.906;1.892;2023-02-12T07:06:05;5.30;99.90
49238;DHT22;35069;47.906;1.892;2023-02-12T07:08:31;5.30;99.90
49238;DHT22;35069;47.906;1.892;2023-02-12T07:10:56;5.30;99.90
49238;DHT22;35069;47.906;1.892;2023-02-12T07:13:22;5.20;99.90
49238;DHT22;35069;47.906;1.892;2023-02-12T07:15:47;5.20;99.90
49238;DHT22;35069;47.906;1.892;2023-02-12T07:18:13;5.20;99.90
49238;DHT22;35069;47.906;1.892;2023-02-12T07:20:39;5.20;99.90
49238;DHT22;35069;47.906;1.892;2023-02-12T07:23:04;5.20;99.90
49238;DHT22;35069;47.906;1.892;2023-02-12T07:25:30;5.10;99.90
49238;DHT22;35069;47.906;1.892;2023-02-12T07:27:55;5.00;99.90
49238;DHT22;35069;47.906;1.892;2023-02-12T07:30:21;5.10;99.90
49238;DHT22;35069;47.906;1.892;2023-02-12T07:32:47;5.10;99.90
49238;DHT22;35069;47.906;1.892;2023-02-12T07:35:12;5.20;99.90
49238;DHT22;35069;47.906;1.892;2023-02-12T07:37:38;5.20;99.90
49238;DHT22;35069;47.906;1.892;2023-02-12T07:40:04;5.20;99.90
49238;DHT22;35069;47.906;1.892;2023-02-12T07:42:29;5.20;99.90
49238;DHT22;35069;47.906;1.892;2023-02-12T07:44:55;5.20;99.90
49238;DHT22;35069;47.906;1.892;2023-02-12T07:47:20;5.20;99.90
49238;DHT22;35069;47.906;1.892;2023-02-12T07:49:46;5.20;99.90
49238;DHT22;35069;47.906;1.892;2023-02-12T07:52:12;5.30;99.90
49238;DHT22;35069;47.906;1.892;2023-02-12T07:54:37;5.40;99.90
49238;DHT22;35069;47.906;1.892;2023-02-12T07:57:03;5.30;99.90
49238;DHT22;35069;47.906;1.892;2023-02-12T07:59:28;5.30;99.90
49238;DHT22;35069;47.906;1.892;2023-02-12T08:01:54;5.30;99.90
49238;DHT22;35069;47.906;1.892;2023-02-12T08:04:22;5.40;99.90
49238;DHT22;35069;47.906;1.892;2023-02-12T08:06:50;5.30;99.90
49238;DHT22;35069;47.906;1.892;2023-02-12T08:09:19;5.30;99.90
49238;DHT22;35069;47.906;1.892;2023-02-12T08:11:46;5.20;99.90
49238;DHT22;35069;47.906;1.892;2023-02-12T08:14:14;5.00;99.90
49238;DHT22;35069;47.906;1.892;2023-02-12T08:16:41;5.10;99.90
49238;DHT22;35069;47.906;1.892;2023-02-12T08:19:07;5.10;99.90
49238;DHT22;35069;47.906;1.892;2023-02-12T08:21:33;5.20;99.90
49238;DHT22;35069;47.906;1.892;2023-02-12T08:23:59;5.20;99.90
49238;DHT22;35069;47.906;1.892;2023-02-12T08:26:31;5.20;99.90
49238;DHT22;35069;47.906;1.892;2023-02-12T08:29:05;5.30;99.90
49238;DHT22;35069;47.906;1.892;2023-02-12T08:31:36;5.20;99.90
49238;DHT22;35069;47.906;1.892;2023-02-12T08:34:03;5.30;99.90
49238;DHT22;35069;47.906;1.892;2023-02-12T08:36:37;5.30;99.90
49238;DHT22;35069;47.906;1.892;2023-02-12T08:39:07;5.40;99.90
49238;DHT22;35069;47.906;1.892;2023-02-12T08:41:33;5.40;99.90
49238;DHT22;35069;47.906;1.892;2023-02-12T08:44:01;5.50;99.90
49238;DHT22;35069;47.906;1.892;2023-02-12T08:46:29;5.50;99.90
49238;DHT22;35069;47.906;1.892;2023-02-12T08:49:00;5.40;99.90
49238;DHT22;35069;47.906;1.892;2023-02-12T08:51:28;5.50;99.90
49238;DHT22;35069;47.906;1.892;2023-02-12T08:54:00;5.50;99.90
49238;DHT22;35069;47.906;1.892;2023-02-12T08:56:27;5.50;99.90
49238;DHT22;35069;47.906;1.892;2023-02-12T08:58:56;5.60;99.90
49238;DHT22;35069;47.906;1.892;2023-02-12T09:01:24;5.60;99.90
49238;DHT22;35069;47.906;1.892;2023-02-12T09:03:50;5.70;99.90
49238;DHT22;35069;47.906;1.892;2023-02-12T09:06:18;5.70;99.90
49238;DHT22;35069;47.906;1.892;2023-02-12T09:08:44;5.80;99.90
49238;DHT22;35069;47.906;1.892;2023-02-12T09:11:12;5.90;99.90
49238;DHT22;35069;47.906;1.892;2023-02-12T09:13:38;6.00;99.90
49238;DHT22;35069;47.906;1.892;2023-02-12T09:16:05;5.90;99.90
49238;DHT22;35069;47.906;1.892;2023-02-12T09:18:31;5.80;99.90
49238;DHT22;35069;47.906;1.892;2023-02-12T09:21:09;5.70;99.90
49238;DHT22;35069;47.906;1.892;2023-02-12T09:23:36;5.80;99.90
49238;DHT22;35069;47.906;1.892;2023-02-12T09:26:07;5.90;99.90
49238;DHT22;35069;47.906;1.892;2023-02-12T09:28:33;5.90;99.90
49238;DHT22;35069;47.906;1.892;2023-02-12T09:31:04;6.00;99.90
49238;DHT22;35069;47.906;1.892;2023-02-12T09:33:30;6.10;99.90
49238;DHT22;35069;47.906;1.892;2023-02-12T09:36:01;6.10;99.90
49238;DHT22;35069;47.906;1.892;2023-02-12T09:38:27;6.10;99.90
49238;DHT22;35069;47.906;1.892;2023-02-12T09:44:09;6.20;99.90
49238;DHT22;35069;47.906;1.892;2023-02-12T09:46:57;6.10;99.90
49238;DHT22;35069;47.906;1.892;2023-02-12T09:52:17;6.10;99.90
49238;DHT22;35069;47.906;1.892;2023-02-12T09:54:43;6.20;99.90
49238;DHT22;35069;47.906;1.892;2023-02-12T09:57:31;6.30;99.90
49238;DHT22;35069;47.906;1.892;2023-02-12T10:02:37;6.60;99.90
49238;DHT22;35069;47.906;1.892;2023-02-12T10:05:04;6.60;99.90
49238;DHT22;35069;47.906;1.892;2023-02-12T10:07:47;6.40;99.90
49238;DHT22;35069;47.906;1.892;2023-02-12T10:27:35;6.80;99.90
49238;DHT22;35069;47.906;1.892;2023-02-12T10:30:12;6.70;99.90
49238;DHT22;35069;47.906;1.892;2023-02-12T10:32:40;6.70;99.90
49238;DHT22;35069;47.906;1.892;2023-02-12T10:35:14;6.90;99.90
49238;DHT22;35069;47.906;1.892;2023-02-12T10:37:55;6.90;99.90
49238;DHT22;35069;47.906;1.892;2023-02-12T10:40:27;6.90;99.90
49238;DHT22;35069;47.906;1.892;2023-02-12T10:42:55;7.00;99.90
49238;DHT22;35069;47.906;1.892;2023-02-12T10:45:31;7.10;99.90
49238;DHT22;35069;47.906;1.892;2023-02-12T10:48:17;7.30;99.90
49238;DHT22;35069;47.906;1.892;2023-02-12T10:53:38;7.50;99.90
49238;DHT22;35069;47.906;1.892;2023-02-12T10:58:56;7.60;99.90
49238;DHT22;35069;47.906;1.892;2023-02-12T11:01:30;8.20;99.90
49238;DHT22;35069;47.906;1.892;2023-02-12T11:03:59;9.20;99.90
49238;DHT22;35069;47.906;1.892;2023-02-12T11:06:27;9.90;99.90
49238;DHT22;35069;47.906;1.892;2023-02-12T11:08:53;9.90;99.90
49238;DHT22;35069;47.906;1.892;2023-02-12T11:11:28;9.80;99.90
49238;DHT22;35069;47.906;1.892;2023-02-12T11:19:04;9.60;99.90
49238;DHT22;35069;47.906;1.892;2023-02-12T11:21:32;9.60;99.90
49238;DHT22;35069;47.906;1.892;2023-02-12T11:26:47;9.50;99.90
49238;DHT22;35069;47.906;1.892;2023-02-12T11:29:19;9.20;99.90
49238;DHT22;35069;47.906;1.892;2023-02-12T11:31:58;9.30;99.90
49238;DHT22;35069;47.906;1.892;2023-02-12T11:34:24;9.20;99.90
49238;DHT22;35069;47.906;1.892;2023-02-12T11:36:53;9.00;99.90
49238;DHT22;35069;47.906;1.892;2023-02-12T11:39:38;9.10;99.90
49238;DHT22;35069;47.906;1.892;2023-02-12T11:42:07;10.30;99.90
49238;DHT22;35069;47.906;1.892;2023-02-12T11:44:42;11.60;99.90
49238;DHT22;35069;47.906;1.892;2023-02-12T11:47:10;12.50;99.90
49238;DHT22;35069;47.906;1.892;2023-02-12T11:49:48;12.90;99.90
49238;DHT22;35069;47.906;1.892;2023-02-12T11:52:30;13.60;99.90
49238;DHT22;35069;47.906;1.892;2023-02-12T11:54:59;14.50;99.90
49238;DHT22;35069;47.906;1.892;2023-02-12T11:57:43;15.00;99.90
49238;DHT22;35069;47.906;1.892;2023-02-12T12:02:39;14.30;99.90
49238;DHT22;35069;47.906;1.892;2023-02-12T12:05:12;14.10;99.90
49238;DHT22;35069;47.906;1.892;2023-02-12T12:07:40;14.30;99.90
49238;DHT22;35069;47.906;1.892;2023-02-12T12:11:06;14.20;95.00
49238;DHT22;35069;47.906;1.892;2023-02-12T12:13:31;14.40;99.70
49238;DHT22;35069;47.906;1.892;2023-02-12T12:16:26;14.80;98.90
49238;DHT22;35069;47.906;1.892;2023-02-12T12:19:24;15.10;98.60
49238;DHT22;35069;47.906;1.892;2023-02-12T12:25:14;15.30;96.70
49238;DHT22;35069;47.906;1.892;2023-02-12T12:33:16;14.50;96.00
49238;DHT22;35069;47.906;1.892;2023-02-12T12:38:47;14.90;94.50
49238;DHT22;35069;47.906;1.892;2023-02-12T12:46:33;13.50;90.60
49238;DHT22;35069;47.906;1.892;2023-02-12T13:05:39;12.30;89.40
49238;DHT22;35069;47.906;1.892;2023-02-12T13:08:22;12.00;86.20
49238;DHT22;35069;47.906;1.892;2023-02-12T13:11:06;11.70;87.10
49238;DHT22;35069;47.906;1.892;2023-02-12T13:13:40;11.10;90.50
49238;DHT22;35069;47.906;1.892;2023-02-12T13:21:33;10.30;90.40
49238;DHT22;35069;47.906;1.892;2023-02-12T13:24:15;10.20;91.10
49238;DHT22;35069;47.906;1.892;2023-02-12T13:26:55;10.10;91.90
49238;DHT22;35069;47.906;1.892;2023-02-12T13:34:29;9.50;93.30
49238;DHT22;35069;47.906;1.892;2023-02-12T13:36:59;9.30;94.50
49238;DHT22;35069;47.906;1.892;2023-02-12T13:39:36;9.30;94.00
49238;DHT22;35069;47.906;1.892;2023-02-12T13:42:08;9.30;95.50
49238;DHT22;35069;47.906;1.892;2023-02-12T13:44:45;9.40;94.90
49238;DHT22;35069;47.906;1.892;2023-02-12T13:50:06;9.20;95.50
49238;DHT22;35069;47.906;1.892;2023-02-12T13:55:40;9.30;96.00
49238;DHT22;35069;47.906;1.892;2023-02-12T14:01:09;9.20;96.60
49238;DHT22;35069;47.906;1.892;2023-02-12T14:03:37;9.20;96.40
49238;DHT22;35069;47.906;1.892;2023-02-12T14:06:29;9.20;96.40
49238;DHT22;35069;47.906;1.892;2023-02-12T14:09:10;9.30;97.20
49238;DHT22;35069;47.906;1.892;2023-02-12T14:11:47;9.30;97.60
49238;DHT22;35069;47.906;1.892;2023-02-12T14:14:25;9.30;97.20
49238;DHT22;35069;47.906;1.892;2023-02-12T14:16:52;9.30;97.20
49238;DHT22;35069;47.906;1.892;2023-02-12T14:24:56;9.30;97.20
49238;DHT22;35069;47.906;1.892;2023-02-12T14:27:26;9.30;97.40
49238;DHT22;35069;47.906;1.892;2023-02-12T14:37:59;10.70;97.90
49238;DHT22;35069;47.906;1.892;2023-02-12T14:43:25;10.00;97.90
49238;DHT22;35069;47.906;1.892;2023-02-12T14:45:52;9.50;98.40
49238;DHT22;35069;47.906;1.892;2023-02-12T14:51:03;9.80;97.90
49238;DHT22;35069;47.906;1.892;2023-02-12T14:53:33;9.50;97.90
49238;DHT22;35069;47.906;1.892;2023-02-12T14:55:59;10.70;98.40
49238;DHT22;35069;47.906;1.892;2023-02-12T14:58:27;10.70;98.20
49238;DHT22;35069;47.906;1.892;2023-02-12T15:00:56;9.50;97.90
49238;DHT22;35069;47.906;1.892;2023-02-12T15:03:47;9.60;98.10
49238;DHT22;35069;47.906;1.892;2023-02-12T15:06:18;10.80;98.50
49238;DHT22;35069;47.906;1.892;2023-02-12T15:08:50;9.60;98.10
49238;DHT22;35069;47.906;1.892;2023-02-12T15:14:14;9.60;98.50
49238;DHT22;35069;47.906;1.892;2023-02-12T15:19:56;9.60;98.50
49238;DHT22;35069;47.906;1.892;2023-02-12T15:22:29;9.60;98.70
49238;DHT22;35069;47.906;1.892;2023-02-12T15:25:29;9.50;98.60
49238;DHT22;35069;47.906;1.892;2023-02-12T15:27:57;9.60;98.90
49238;DHT22;35069;47.906;1.892;2023-02-12T15:30:29;9.60;98.80
49238;DHT22;35069;47.906;1.892;2023-02-12T15:32:57;9.60;99.00
49238;DHT22;35069;47.906;1.892;2023-02-12T15:37:53;9.60;99.10
49238;DHT22;35069;47.906;1.892;2023-02-12T15:40:19;9.60;99.30
49238;DHT22;35069;47.906;1.892;2023-02-12T15:42:59;9.60;99.30
49238;DHT22;35069;47.906;1.892;2023-02-12T15:45:27;9.60;99.40
49238;DHT22;35069;47.906;1.892;2023-02-12T15:50:37;9.60;99.50
49238;DHT22;35069;47.906;1.892;2023-02-12T15:53:10;9.60;99.50
49238;DHT22;35069;47.906;1.892;2023-02-12T15:55:40;9.60;99.60
49238;DHT22;35069;47.906;1.892;2023-02-12T15:58:19;9.60;99.50
49238;DHT22;35069;47.906;1.892;2023-02-12T16:00:45;9.60;99.70
49238;DHT22;35069;47.906;1.892;2023-02-12T16:03:24;9.60;99.80
49238;DHT22;35069;47.906;1.892;2023-02-12T16:05:51;9.60;99.80
49238;DHT22;35069;47.906;1.892;2023-02-12T16:08:20;9.70;99.80
49238;DHT22;35069;47.906;1.892;2023-02-12T16:10:48;9.60;99.90
49238;DHT22;35069;47.906;1.892;2023-02-12T16:13:17;9.60;99.90
49238;DHT22;35069;47.906;1.892;2023-02-12T16:15:44;9.70;99.90
49238;DHT22;35069;47.906;1.892;2023-02-12T16:18:22;9.60;99.90
49238;DHT22;35069;47.906;1.892;2023-02-12T16:20:49;9.50;99.90
49238;DHT22;35069;47.906;1.892;2023-02-12T16:23:25;9.60;99.90
49238;DHT22;35069;47.906;1.892;2023-02-12T16:25:54;9.50;99.90
49238;DHT22;35069;47.906;1.892;2023-02-12T16:28:27;9.60;99.90
49238;DHT22;35069;47.906;1.892;2023-02-12T16:31:10;9.50;99.90
49238;DHT22;35069;47.906;1.892;2023-02-12T16:36:14;9.50;99.90
49238;DHT22;35069;47.906;1.892;2023-02-12T16:39:02;9.40;99.90
49238;DHT22;35069;47.906;1.892;2023-02-12T16:41:31;9.40;99.90
49238;DHT22;35069;47.906;1.892;2023-02-12T16:46:27;9.30;99.90
49238;DHT22;35069;47.906;1.892;2023-02-12T16:48:56;9.20;99.90
49238;DHT22;35069;47.906;1.892;2023-02-12T16:51:34;9.20;99.90
49238;DHT22;35069;47.906;1.892;2023-02-12T16:54:03;9.20;99.90
49238;DHT22;35069;47.906;1.892;2023-02-12T16:56:36;9.10;99.90
49238;DHT22;35069;47.906;1.892;2023-02-12T16:59:04;9.10;99.90
49238;DHT22;35069;47.906;1.892;2023-02-12T17:01:33;9.00;99.90
49238;DHT22;35069;47.906;1.892;2023-02-12T17:04:01;8.90;99.90
49238;DHT22;35069;47.906;1.892;2023-02-12T17:06:30;8.80;99.90
49238;DHT22;35069;47.906;1.892;2023-02-12T17:08:56;8.80;99.90
49238;DHT22;35069;47.906;1.892;2023-02-12T17:11:23;8.70;99.90
49238;DHT22;35069;47.906;1.892;2023-02-12T17:13:51;8.80;99.90
49238;DHT22;35069;47.906;1.892;2023-02-12T17:16:18;8.60;99.90
49238;DHT22;35069;47.906;1.892;2023-02-12T17:18:44;8.70;99.90
49238;DHT22;35069;47.906;1.892;2023-02-12T17:21:30;8.60;99.90
49238;DHT22;35069;47.906;1.892;2023-02-12T17:23:56;8.60;99.90
49238;DHT22;35069;47.906;1.892;2023-02-12T17:26:23;8.50;99.90
49238;DHT22;35069;47.906;1.892;2023-02-12T17:28:49;8.50;99.90
49238;DHT22;35069;47.906;1.892;2023-02-12T17:31:14;8.50;99.90
49238;DHT22;35069;47.906;1.892;2023-02-12T17:33:40;8.40;99.90
49238;DHT22;35069;47.906;1.892;2023-02-12T17:36:06;8.30;99.90
49238;DHT22;35069;47.906;1.892;2023-02-12T17:38:32;8.30;99.90
49238;DHT22;35069;47.906;1.892;2023-02-12T17:40:57;8.30;99.90
49238;DHT22;35069;47.906;1.892;2023-02-12T17:43:23;8.20;99.90
49238;DHT22;35069;47.906;1.892;2023-02-12T17:45:49;8.10;99.90
49238;DHT22;35069;47.906;1.892;2023-02-12T17:48:15;8.10;99.90
49238;DHT22;35069;47.906;1.892;2023-02-12T17:50:42;8.00;99.90
49238;DHT22;35069;47.906;1.892;2023-02-12T17:53:09;8.00;99.90
49238;DHT22;35069;47.906;1.892;2023-02-12T17:55:39;7.90;99.90
49238;DHT22;35069;47.906;1.892;2023-02-12T17:58:05;7.80;99.90
49238;DHT22;35069;47.906;1.892;2023-02-12T18:00:31;7.90;99.90
49238;DHT22;35069;47.906;1.892;2023-02-12T18:02:57;7.80;99.90
49238;DHT22;35069;47.906;1.892;2023-02-12T18:05:22;7.80;99.90
49238;DHT22;35069;47.906;1.892;2023-02-12T18:07:48;7.70;99.90
49238;DHT22;35069;47.906;1.892;2023-02-12T18:10:14;7.70;99.90
49238;DHT22;35069;47.906;1.892;2023-02-12T18:12:40;7.80;99.90
49238;DHT22;35069;47.906;1.892;2023-02-12T18:15:06;7.70;99.90
49238;DHT22;35069;47.906;1.892;2023-02-12T18:17:33;7.60;99.90
49238;DHT22;35069;47.906;1.892;2023-02-12T18:19:59;7.50;99.90
49238;DHT22;35069;47.906;1.892;2023-02-12T18:22:25;7.50;99.90
49238;DHT22;35069;47.906;1.892;2023-02-12T18:24:50;7.50;99.90
49238;DHT22;35069;47.906;1.892;2023-02-12T18:27:17;7.40;99.90
49238;DHT22;35069;47.906;1.892;2023-02-12T18:29:43;7.40;99.90
49238;DHT22;35069;47.906;1.892;2023-02-12T18:32:08;7.30;99.90
49238;DHT22;35069;47.906;1.892;2023-02-12T18:34:39;7.20;99.90
49238;DHT22;35069;47.906;1.892;2023-02-12T18:37:06;7.20;99.90
49238;DHT22;35069;47.906;1.892;2023-02-12T18:39:32;7.20;99.90
49238;DHT22;35069;47.906;1.892;2023-02-12T18:41:57;7.20;99.90
49238;DHT22;35069;47.906;1.892;2023-02-12T18:44:23;7.20;99.90
49238;DHT22;35069;47.906;1.892;2023-02-12T18:46:49;7.10;99.90
49238;DHT22;35069;47.906;1.892;2023-02-12T18:49:14;7.10;99.90
49238;DHT22;35069;47.906;1.892;2023-02-12T18:51:41;7.10;99.90
49238;DHT22;35069;47.906;1.892;2023-02-12T18:54:10;7.00;99.90